Walkersville, MD (21793)

11:07 AM EST on February 06, 2016 (GMT -0500)
Arrowhead | | Change Station
CLOSE
Current Station
Personal Weather Station
Location: Frederick, MD
Elevation: 318 ft
Nearby Weather Stations

Elev 318 ft 39.46 °N, 77.41 °W | Updated 10 minutes ago

Partly Cloudy
Partly Cloudy
34.5 °F
Feels Like 34 °F
N
0.0
Wind Variable Wind from South
Gusts 0.0 mph

Today
High -- | Low -- °F
--% Chance of Precip.
Yesterday
High -- | Low -- °F
Precip. -- in
Pressure 30.47 in
Visibility 10.0 miles
Clouds Clear
Windchill 34 °F
Dew Point 26 °F
Humidity 70%
Rainfall 0.00 in
Snow Depth Not available.
7:12 AM 5:34 PM
Waning Crescent, 5% visible
METAR KFDK 061447Z 21008KT 10SM SKC 01/M04 A3047
Pressure 30.47 in
Visibility 10.0 miles
Clouds Clear
Windchill 34 °F
Dew Point 26 °F
Humidity 70%
Rainfall 0.00 in
Snow Depth Not available.
7:12 AM 5:34 PM
Waning Crescent, 5% visible
METAR KFDK 061447Z 21008KT 10SM SKC 01/M04 A3047

10-Day Weather Forecast

Almanac

Astronomy

Feb. 06, 2016 Rise Set
Actual Time
Civil Twilight
Nautical Twilight
Astronomical Twilight
Moon
Length of Visible Light
Length of Day
Tomorrow will be .
, % of the Moon is Illuminated

Today's Extremes

State Highs State Lows

Community

WunderPhotos

Upload Photos

1,890,997 photos uploaded!

WunderBlog® & News

Nearby

Air Quality

  Air Quality AQ Index Pollutant
Not available.

Snow Depth

Station Depth Elevation

Earthquake Activity

City Distance Mag. Time & Date
Minimum magnitude displayed is 2.5.

Coastal Water Temperatures

Place Temperature

Stations

Nearby Weather Stations

Station Location Temp. Windchill Dew Point Humidity Wind Precip. Elev Updated Type
                   

Watches & Warnings

There are currently no watches in effect.